This is the latest recevied weather packets stored in our database for station/object WP3OF-3. If no packets are shown the sender has not sent any weather packets the latest 10 day(s).
| Time | Temp. | Humidity | Pressure | Rain* | Wind** | Luminosity | Snow |
|---|---|---|---|---|---|---|---|
| 1777921952 | 30.56° C | 54% | 1017.5 hPa | 0 mm | - | - | - |
| 1777921647 | 31.11° C | 53% | 1017.2 hPa | 0 mm | - | - | - |
| 1777921344 | 31.11° C | 52% | 1017.3 hPa | 0 mm | - | - | - |
| 1777921040 | 31.11° C | 51% | 1017.2 hPa | 0 mm | - | - | - |
| 1777920433 | 32.78° C | 51% | 1017.2 hPa | 0 mm | - | - | - |
| 1777919825 | 32.22° C | 52% | 1017.4 hPa | 0 mm | - | - | - |
| 1777919522 | 32.22° C | 50% | 1017.7 hPa | 0 mm | - | - | - |
| 1777919220 | 32.22° C | 49% | 1017.5 hPa | 0 mm | - | - | - |
| 1777918615 | 32.22° C | 49% | 1017.7 hPa | 0 mm | - | - | - |
| 1777918312 | 31.67° C | 53% | 1017.7 hPa | 0 mm | - | - | - |
| 1777917709 | 32.22° C | 51% | 1017.6 hPa | 0 mm | - | - | - |
| 1777917103 | 31.67° C | 46% | 1018 hPa | 0 mm | - | - | - |
| 1777916195 | 31.67° C | 51% | 1018.2 hPa | 0 mm | - | - | - |
| 1777915892 | 31.67° C | 53% | 1018.2 hPa | 0 mm | - | - | - |
| 1777915588 | 31.11° C | 63% | 1018.2 hPa | 0 mm | - | - | - |
| 1777914375 | 30° C | 72% | 1018.4 hPa | 0 mm | - | - | - |
| 1777914073 | 30° C | 70% | 1018.4 hPa | 0 mm | - | - | - |
| 1777913465 | 28.89° C | 73% | 1018.8 hPa | 0 mm | - | - | - |
| 1777912858 | 29.44° C | 73% | 1018.6 hPa | 0 mm | - | - | - |
| 1777911947 | 28.89° C | 74% | 1018.8 hPa | 0 mm | - | - | - |
| 1777908917 | 30.56° C | 56% | 1019 hPa | 0 mm | - | - | - |
| 1777907095 | 30.56° C | 59% | 1019.3 hPa | 0 mm | - | - | - |
| 1777906186 | 30° C | 59% | 1019.4 hPa | 0 mm | - | - | - |
| 1777905579 | 30° C | 60% | 1019.3 hPa | 0 mm | - | - | - |
| 1777905277 | 29.44° C | 61% | 1019.4 hPa | 0 mm | - | - | - |
* Rain latest hour (hover to see other rain measurements)
** Current wind speed in m/s (hover to see current wind gust speed)